Bei Facebook empfehlenBei Twitter postenGoogle plusPinterest

Das Wetter im Erzgebirge am 30.08.2015

Wetter und Klima am 30.08.2015 Holzhau im Erzgebirge (630m ü.NN)
Letzte gemessene Temperatur und Uhrzeit der Messung23:45:00 Uhr18.50 °C
Temperatur (Maximum / Höchstwert) und Uhrzeit der Messung15:45:00 Uhr33.90 °C
Temperatur (Minimum / Tiefstwert) und Uhrzeit der Messung05:30:0015.20 °C
Errechneter Absolutwert der Temperaturschwankungen zwischen Tmin und Tmax des Tages18.70 K
Errechnete Tagesmitteltemperatur23.25521 °C
Gesamt - Niederschlag des Tages (in flüssiger Form)0.00 Liter / m²
Luftdruck (Maximum / Höchstwert) und Zeitpunkt der Messung00:15:00 Uhr1020.40 hPa
Luftdruck (Minimum / Tiefstwert) und Zeitpunkt der Messung23:45:00 Uhr1016.50 hPa
Errechneter Absolutwert der Luftdruckschwankungen des Tages3.90 hPa
Höchste gemessene Windgeschwindigkeit und Uhrzeit der Messung18:30:00 Uhr9.72 km/h
Errechnete Windhäufigkeit in Relation zu den Messwerten des Tages19.79167 %
Niedrigste Windkühle (Windchill) und Zeitpunkt der Messung05:30:00 Uhr15.20 °C
Taupunkt (Maximum / Höchstwert) und Uhrzeit der Messung10:15:00 Uhr22.10 °C
Taupunkt (Minimum / Tiefstwert) und Uhrzeit der Messung05:30:0013.70 °C
Anzahl der automatisch eingelesenen Messwerte 96

Detaillierte Wetter- und Klima- Messwerte für den 30.08.2015 in Holzhau im Erzgebirge (630m ü.NN)
ZeitTemperaturLuftdruckRel. LuftfeuchteWindWindrichtungWindchillTaupunktNiederschlag l/m²
23:45:0018.50 °C1016.50 hPa85.00 %2.52 km/hOSO18.50 °C15.90 °C 
23:30:0018.60 °C1016.70 hPa85.00 %3.24 km/hNO18.60 °C16.00 °C 
23:15:0018.80 °C1016.80 hPa85.00 %8.28 km/hOSO19.30 °C16.20 °C 
23:00:0018.90 °C1016.70 hPa84.00 %7.92 km/hOSO19.50 °C16.10 °C 
22:45:0019.10 °C1016.70 hPa84.00 %16.30 °C 
22:30:0019.30 °C1016.90 hPa84.00 %5.40 km/hSO20.20 °C16.50 °C 
22:15:0019.40 °C1016.80 hPa83.00 %16.40 °C 
22:00:0019.60 °C1017.00 hPa83.00 %16.60 °C 
21:45:0019.80 °C1016.90 hPa81.00 %16.40 °C 
21:30:0020.20 °C1017.00 hPa80.00 %16.60 °C 
21:15:0020.50 °C1017.10 hPa79.00 %16.70 °C 
21:00:0020.90 °C1017.00 hPa77.00 %16.70 °C 
20:45:0021.20 °C1017.10 hPa76.00 %16.80 °C 
20:30:0021.80 °C1016.90 hPa74.00 %17.00 °C 
20:15:0022.40 °C1017.00 hPa72.00 %17.10 °C 
20:00:0023.30 °C1017.00 hPa69.00 %17.30 °C 
19:45:0024.40 °C1016.90 hPa67.00 %17.90 °C 
19:30:0025.60 °C1016.80 hPa63.00 %18.00 °C 
19:15:0026.80 °C1016.90 hPa60.00 %18.40 °C 
19:00:0028.10 °C1016.90 hPa57.00 %18.80 °C 
18:45:0028.90 °C1016.90 hPa54.00 %18.70 °C 
18:30:0029.40 °C1016.80 hPa52.00 %9.72 km/hSO31.80 °C18.50 °C 
18:15:0029.90 °C1016.80 hPa51.00 %18.70 °C 
18:00:0030.40 °C1016.80 hPa50.00 %18.80 °C 
17:45:0030.70 °C1016.90 hPa51.00 %19.40 °C 
17:30:0030.90 °C1017.00 hPa51.00 %19.60 °C 
17:15:0031.20 °C1016.80 hPa51.00 %19.90 °C 
17:00:0031.40 °C1016.90 hPa51.00 %20.00 °C 
16:45:0032.10 °C1016.90 hPa50.00 %20.40 °C 
16:30:0032.80 °C1017.00 hPa49.00 %20.70 °C 
16:15:0033.10 °C1017.00 hPa48.00 %5.76 km/hOSO36.00 °C20.60 °C 
16:00:0033.80 °C1017.00 hPa47.00 %20.90 °C 
15:45:0033.90 °C1017.40 hPa47.00 %21.00 °C 
15:30:0033.50 °C1017.40 hPa46.00 %20.30 °C 
15:15:0033.20 °C1017.30 hPa49.00 %21.00 °C 
15:00:0033.30 °C1017.60 hPa49.00 %7.92 km/hSW36.40 °C21.10 °C 
14:45:0033.20 °C1017.70 hPa50.00 %21.40 °C 
14:30:0032.80 °C1017.50 hPa53.00 %22.00 °C 
14:15:0032.20 °C1017.60 hPa53.00 %21.40 °C 
14:00:0032.00 °C1017.80 hPa54.00 %7.56 km/hSSW34.80 °C21.50 °C 
13:45:0031.80 °C1017.70 hPa55.00 %21.60 °C 
13:30:0031.70 °C1017.60 hPa55.00 %21.50 °C 
13:15:0031.80 °C1017.80 hPa56.00 %7.20 km/hSO34.60 °C21.90 °C 
13:00:0031.40 °C1017.70 hPa56.00 %21.60 °C 
12:45:0031.20 °C1017.80 hPa55.00 %21.10 °C 
12:30:0031.00 °C1017.80 hPa57.00 %21.50 °C 
12:15:0030.40 °C1017.90 hPa58.00 %21.20 °C 
12:00:0030.20 °C1018.10 hPa60.00 %5.40 km/hSSO32.70 °C21.60 °C 
11:45:0029.60 °C1018.10 hPa63.00 %21.80 °C 
11:30:0029.20 °C1018.10 hPa64.00 %21.70 °C 
11:15:0028.90 °C1018.10 hPa65.00 %21.70 °C 
11:00:0028.40 °C1018.00 hPa66.00 %21.40 °C 
10:45:0027.90 °C1018.20 hPa68.00 %2.52 km/hSO27.90 °C21.40 °C 
10:30:0027.60 °C1018.40 hPa71.00 %21.90 °C 
10:15:0026.90 °C1018.40 hPa75.00 %22.10 °C 
10:00:0025.80 °C1018.20 hPa78.00 %21.70 °C 
09:45:0024.80 °C1018.30 hPa80.00 %21.10 °C 
09:30:0024.20 °C1018.20 hPa83.00 %21.10 °C 
09:15:0023.30 °C1018.00 hPa86.00 %20.80 °C 
09:00:0022.30 °C1018.00 hPa88.00 %20.20 °C 
08:45:0021.20 °C1018.10 hPa90.00 %19.50 °C 
08:30:0020.30 °C1018.00 hPa90.00 %2.16 km/hO20.30 °C18.60 °C 
08:15:0019.50 °C1018.10 hPa91.00 %18.00 °C 
08:00:0018.50 °C1018.10 hPa91.00 %2.16 km/hSO18.50 °C17.00 °C 
07:45:0017.50 °C1018.20 hPa92.00 %2.16 km/hO17.50 °C16.20 °C 
07:30:0016.90 °C1018.30 hPa92.00 %15.60 °C 
07:15:0016.50 °C1018.30 hPa91.00 %15.00 °C 
07:00:0016.40 °C1018.30 hPa92.00 %15.10 °C 
06:45:0016.40 °C1018.30 hPa92.00 %15.10 °C 
06:30:0016.30 °C1018.30 hPa92.00 %15.00 °C 
06:15:0016.20 °C1018.30 hPa91.00 %14.70 °C 
06:00:0016.10 °C1018.40 hPa91.00 %14.60 °C 
05:45:0015.80 °C1018.20 hPa91.00 %2.16 km/hSSO15.80 °C14.30 °C 
05:30:0015.20 °C1018.20 hPa91.00 %13.70 °C 
05:15:0015.40 °C1018.40 hPa90.00 %13.80 °C 
05:00:0015.80 °C1018.50 hPa90.00 %14.20 °C 
04:45:0016.00 °C1018.50 hPa90.00 %14.40 °C 
04:30:0016.10 °C1018.50 hPa91.00 %14.60 °C 
04:15:0016.20 °C1018.60 hPa91.00 %14.70 °C 
04:00:0016.10 °C1018.60 hPa91.00 %14.60 °C 
03:45:0016.10 °C1018.70 hPa90.00 %14.50 °C 
03:30:0016.20 °C1018.90 hPa90.00 %14.60 °C 
03:15:0016.30 °C1019.00 hPa91.00 %2.88 km/hOSO16.30 °C14.80 °C 
03:00:0016.30 °C1019.00 hPa90.00 %14.70 °C 
02:45:0016.30 °C1019.10 hPa91.00 %14.80 °C 
02:30:0016.40 °C1019.20 hPa91.00 %14.90 °C 
02:15:0016.60 °C1019.40 hPa91.00 %15.10 °C 
02:00:0016.60 °C1019.40 hPa91.00 %15.10 °C 
01:45:0016.60 °C1019.50 hPa91.00 %15.10 °C 
01:30:0016.40 °C1019.70 hPa91.00 %1.44 km/hSO16.40 °C14.90 °C 
01:15:0016.40 °C1019.80 hPa91.00 %14.90 °C 
01:00:0016.20 °C1019.90 hPa91.00 %14.70 °C 
00:45:0015.90 °C1020.00 hPa90.00 %1.80 km/hSSO15.90 °C14.30 °C 
00:30:0016.00 °C1020.00 hPa90.00 %14.40 °C 
00:15:0016.00 °C1020.40 hPa90.00 %14.40 °C 
00:00:0015.50 °C1020.20 hPa90.00 %13.90 °C 

Permanenter Link zu dieser Seite: Wetter im Erzgebirge am 30.08.2015
Performance-Info: Die Erstellung der Seite / Statistik(en) / Tabelle(n) erforderte 5 Datenbankserver-Abfrage(n) und dauerte 99 Millisekunden. (Dieser Messwert ist von der Gesamt-Auslastung des Servers abhängig.)
Erzgebirge - Wetter | Erzgebirge - Wetter (Mobilgeräte) | Komplette Klimadatenbank